Dunbridge, Ohio
Current Conditions -  °F | °C
As of 2:53 PM on Monday 24 Nov 2014 (Local Time) from KTDZ Reporting Station
Overcast Overcast  
Wind Chill: 31°   Ceiling: 1900
Heat Index: 42°   Visibility: 10mi
Dew Point: 33°   Wind: 33mph
Humidity: 70%   Direction: 230°SW
Pressure: 29.45"   Gusts: 53mph
Location:  41.46°N, 83.61°W
Report Text: KTDZ 241953Z AUTO 23029G46KT 10SM BKN019 OVC024 06/01 A2945 RMK AO2 PK WND 23050/1906 PRESRR SLP974 T00560006 TSNO $
Loading
Personal Weather Stations






























Interactive Weather Map New forecast layout! Learn more

10-Day Weather Forecast

Advertisements
Track Severe Weather on mobile